sensor_id;sensor_type;location;lat;lon;timestamp;P1;durP1;ratioP1;P2;durP2;ratioP2
27013;SDS011;14556;52.222;4.510;2022-12-29T00:00:53;6.77;;;2.50;;
27013;SDS011;14556;52.222;4.510;2022-12-29T00:03:19;3.70;;;2.17;;
27013;SDS011;14556;52.222;4.510;2022-12-29T00:05:53;2.20;;;1.80;;
27013;SDS011;14556;52.222;4.510;2022-12-29T00:08:20;3.53;;;2.17;;
27013;SDS011;14556;52.222;4.510;2022-12-29T00:11:08;2.33;;;1.70;;
27013;SDS011;14556;52.222;4.510;2022-12-29T00:13:39;5.03;;;1.80;;
27013;SDS011;14556;52.222;4.510;2022-12-29T00:16:25;2.67;;;1.43;;
27013;SDS011;14556;52.222;4.510;2022-12-29T00:18:53;3.07;;;2.17;;
27013;SDS011;14556;52.222;4.510;2022-12-29T00:21:20;2.30;;;1.90;;
27013;SDS011;14556;52.222;4.510;2022-12-29T00:24:20;2.63;;;1.80;;
27013;SDS011;14556;52.222;4.510;2022-12-29T00:29:49;3.13;;;1.63;;
27013;SDS011;14556;52.222;4.510;2022-12-29T00:32:34;3.67;;;1.50;;
27013;SDS011;14556;52.222;4.510;2022-12-29T00:35:30;3.47;;;1.57;;
27013;SDS011;14556;52.222;4.510;2022-12-29T00:38:01;3.03;;;1.63;;
27013;SDS011;14556;52.222;4.510;2022-12-29T00:40:49;1.60;;;1.30;;
27013;SDS011;14556;52.222;4.510;2022-12-29T00:43:34;1.47;;;1.17;;
27013;SDS011;14556;52.222;4.510;2022-12-29T00:46:19;1.83;;;1.40;;
27013;SDS011;14556;52.222;4.510;2022-12-29T00:48:46;2.57;;;1.60;;
27013;SDS011;14556;52.222;4.510;2022-12-29T00:51:31;1.73;;;1.27;;
27013;SDS011;14556;52.222;4.510;2022-12-29T00:53:58;2.40;;;1.10;;
27013;SDS011;14556;52.222;4.510;2022-12-29T00:56:24;3.93;;;1.30;;
27013;SDS011;14556;52.222;4.510;2022-12-29T00:58:51;1.97;;;1.27;;
27013;SDS011;14556;52.222;4.510;2022-12-29T01:01:17;0.60;;;0.60;;
27013;SDS011;14556;52.222;4.510;2022-12-29T01:03:44;1.43;;;1.10;;
27013;SDS011;14556;52.222;4.510;2022-12-29T01:06:11;2.33;;;1.37;;
27013;SDS011;14556;52.222;4.510;2022-12-29T01:08:39;1.40;;;0.87;;
27013;SDS011;14556;52.222;4.510;2022-12-29T01:11:06;1.57;;;1.17;;
27013;SDS011;14556;52.222;4.510;2022-12-29T01:13:35;1.13;;;1.00;;
27013;SDS011;14556;52.222;4.510;2022-12-29T01:16:03;1.33;;;1.23;;
27013;SDS011;14556;52.222;4.510;2022-12-29T01:18:30;1.17;;;1.00;;
27013;SDS011;14556;52.222;4.510;2022-12-29T01:21:00;1.13;;;0.83;;
27013;SDS011;14556;52.222;4.510;2022-12-29T01:23:28;2.63;;;1.27;;
27013;SDS011;14556;52.222;4.510;2022-12-29T01:25:55;4.23;;;1.30;;
27013;SDS011;14556;52.222;4.510;2022-12-29T01:28:22;1.37;;;1.07;;
27013;SDS011;14556;52.222;4.510;2022-12-29T01:30:51;2.70;;;1.10;;
27013;SDS011;14556;52.222;4.510;2022-12-29T01:33:18;2.00;;;1.07;;
27013;SDS011;14556;52.222;4.510;2022-12-29T01:35:44;2.37;;;1.20;;
27013;SDS011;14556;52.222;4.510;2022-12-29T01:38:10;0.83;;;0.80;;
27013;SDS011;14556;52.222;4.510;2022-12-29T01:40:42;1.80;;;0.87;;
27013;SDS011;14556;52.222;4.510;2022-12-29T01:43:11;3.43;;;1.20;;
27013;SDS011;14556;52.222;4.510;2022-12-29T01:45:48;2.80;;;1.00;;
27013;SDS011;14556;52.222;4.510;2022-12-29T01:48:17;0.97;;;0.87;;
27013;SDS011;14556;52.222;4.510;2022-12-29T01:50:50;1.33;;;0.93;;
27013;SDS011;14556;52.222;4.510;2022-12-29T01:53:20;2.80;;;0.90;;
27013;SDS011;14556;52.222;4.510;2022-12-29T01:55:53;1.13;;;0.90;;
27013;SDS011;14556;52.222;4.510;2022-12-29T01:58:23;3.43;;;1.10;;
27013;SDS011;14556;52.222;4.510;2022-12-29T02:00:52;6.07;;;1.63;;
27013;SDS011;14556;52.222;4.510;2022-12-29T02:03:19;5.73;;;1.60;;
27013;SDS011;14556;52.222;4.510;2022-12-29T02:08:33;5.60;;;0.83;;
27013;SDS011;14556;52.222;4.510;2022-12-29T02:11:00;5.70;;;1.00;;
27013;SDS011;14556;52.222;4.510;2022-12-29T02:13:27;6.10;;;1.13;;
27013;SDS011;14556;52.222;4.510;2022-12-29T02:30:04;3.03;;;0.80;;
27013;SDS011;14556;52.222;4.510;2022-12-29T02:32:51;5.93;;;0.90;;
27013;SDS011;14556;52.222;4.510;2022-12-29T02:35:29;1.17;;;0.43;;
27013;SDS011;14556;52.222;4.510;2022-12-29T02:41:32;5.70;;;0.90;;
27013;SDS011;14556;52.222;4.510;2022-12-29T02:46:52;7.50;;;1.27;;
27013;SDS011;14556;52.222;4.510;2022-12-29T02:49:43;5.50;;;0.80;;
27013;SDS011;14556;52.222;4.510;2022-12-29T02:52:56;5.70;;;1.00;;
27013;SDS011;14556;52.222;4.510;2022-12-29T02:55:19;3.70;;;0.80;;
27013;SDS011;14556;52.222;4.510;2022-12-29T02:57:45;6.77;;;1.00;;
27013;SDS011;14556;52.222;4.510;2022-12-29T03:00:13;4.63;;;1.17;;
27013;SDS011;14556;52.222;4.510;2022-12-29T03:02:57;11.07;;;1.63;;
27013;SDS011;14556;52.222;4.510;2022-12-29T03:13:30;6.77;;;1.30;;
27013;SDS011;14556;52.222;4.510;2022-12-29T03:16:31;10.43;;;1.60;;
27013;SDS011;14556;52.222;4.510;2022-12-29T03:19:17;5.97;;;0.93;;
27013;SDS011;14556;52.222;4.510;2022-12-29T03:21:49;9.73;;;1.00;;
27013;SDS011;14556;52.222;4.510;2022-12-29T03:24:40;5.53;;;1.47;;
27013;SDS011;14556;52.222;4.510;2022-12-29T03:27:13;10.20;;;1.53;;
27013;SDS011;14556;52.222;4.510;2022-12-29T03:29:46;3.97;;;0.80;;
27013;SDS011;14556;52.222;4.510;2022-12-29T03:32:20;10.10;;;1.33;;
27013;SDS011;14556;52.222;4.510;2022-12-29T03:34:49;7.10;;;1.60;;
27013;SDS011;14556;52.222;4.510;2022-12-29T03:37:18;10.73;;;1.53;;
27013;SDS011;14556;52.222;4.510;2022-12-29T03:39:48;5.23;;;1.43;;
27013;SDS011;14556;52.222;4.510;2022-12-29T03:42:15;3.73;;;1.27;;
27013;SDS011;14556;52.222;4.510;2022-12-29T03:44:46;8.13;;;1.80;;
27013;SDS011;14556;52.222;4.510;2022-12-29T03:47:13;12.23;;;1.73;;
27013;SDS011;14556;52.222;4.510;2022-12-29T03:49:41;7.57;;;1.57;;
27013;SDS011;14556;52.222;4.510;2022-12-29T03:52:07;11.03;;;1.60;;
27013;SDS011;14556;52.222;4.510;2022-12-29T03:54:33;6.27;;;1.20;;
27013;SDS011;14556;52.222;4.510;2022-12-29T03:57:00;6.43;;;1.47;;
27013;SDS011;14556;52.222;4.510;2022-12-29T03:59:26;7.97;;;1.13;;
27013;SDS011;14556;52.222;4.510;2022-12-29T04:01:53;6.60;;;1.77;;
27013;SDS011;14556;52.222;4.510;2022-12-29T04:04:19;7.83;;;1.13;;
27013;SDS011;14556;52.222;4.510;2022-12-29T04:06:46;3.47;;;1.10;;
27013;SDS011;14556;52.222;4.510;2022-12-29T04:09:12;10.70;;;1.63;;
27013;SDS011;14556;52.222;4.510;2022-12-29T04:11:39;9.27;;;1.87;;
27013;SDS011;14556;52.222;4.510;2022-12-29T04:14:05;8.80;;;1.27;;
27013;SDS011;14556;52.222;4.510;2022-12-29T04:16:32;6.40;;;1.73;;
27013;SDS011;14556;52.222;4.510;2022-12-29T04:19:02;6.43;;;1.83;;
27013;SDS011;14556;52.222;4.510;2022-12-29T04:21:28;7.93;;;1.80;;
27013;SDS011;14556;52.222;4.510;2022-12-29T04:23:55;11.17;;;1.73;;
27013;SDS011;14556;52.222;4.510;2022-12-29T04:26:21;6.57;;;1.27;;
27013;SDS011;14556;52.222;4.510;2022-12-29T04:28:48;11.23;;;1.10;;
27013;SDS011;14556;52.222;4.510;2022-12-29T04:31:14;8.23;;;1.70;;
27013;SDS011;14556;52.222;4.510;2022-12-29T04:33:41;13.67;;;2.13;;
27013;SDS011;14556;52.222;4.510;2022-12-29T04:36:08;20.23;;;2.37;;
27013;SDS011;14556;52.222;4.510;2022-12-29T04:38:34;6.23;;;2.23;;
27013;SDS011;14556;52.222;4.510;2022-12-29T04:41:02;14.13;;;1.90;;
27013;SDS011;14556;52.222;4.510;2022-12-29T04:43:29;15.43;;;1.43;;
27013;SDS011;14556;52.222;4.510;2022-12-29T04:45:55;17.17;;;2.40;;
27013;SDS011;14556;52.222;4.510;2022-12-29T04:48:22;14.70;;;2.27;;
27013;SDS011;14556;52.222;4.510;2022-12-29T04:50:49;13.67;;;2.17;;
27013;SDS011;14556;52.222;4.510;2022-12-29T04:53:16;6.73;;;1.40;;
27013;SDS011;14556;52.222;4.510;2022-12-29T04:55:44;8.33;;;1.47;;
27013;SDS011;14556;52.222;4.510;2022-12-29T04:58:10;4.80;;;1.10;;
27013;SDS011;14556;52.222;4.510;2022-12-29T05:00:42;9.03;;;1.73;;
27013;SDS011;14556;52.222;4.510;2022-12-29T05:03:09;7.83;;;1.30;;
27013;SDS011;14556;52.222;4.510;2022-12-29T05:05:36;10.57;;;1.63;;
27013;SDS011;14556;52.222;4.510;2022-12-29T05:08:03;7.07;;;1.73;;
27013;SDS011;14556;52.222;4.510;2022-12-29T05:10:29;13.00;;;1.83;;
27013;SDS011;14556;52.222;4.510;2022-12-29T05:12:57;9.23;;;1.57;;
27013;SDS011;14556;52.222;4.510;2022-12-29T05:15:23;6.57;;;1.03;;
27013;SDS011;14556;52.222;4.510;2022-12-29T05:17:50;12.17;;;1.57;;
27013;SDS011;14556;52.222;4.510;2022-12-29T05:20:17;7.93;;;1.30;;
27013;SDS011;14556;52.222;4.510;2022-12-29T05:22:43;7.43;;;2.03;;
27013;SDS011;14556;52.222;4.510;2022-12-29T05:25:10;12.50;;;2.27;;
27013;SDS011;14556;52.222;4.510;2022-12-29T05:27:36;9.43;;;1.27;;
27013;SDS011;14556;52.222;4.510;2022-12-29T05:30:03;7.00;;;1.80;;
27013;SDS011;14556;52.222;4.510;2022-12-29T05:32:30;10.67;;;1.70;;
27013;SDS011;14556;52.222;4.510;2022-12-29T05:34:58;6.37;;;1.80;;
27013;SDS011;14556;52.222;4.510;2022-12-29T05:37:24;9.07;;;1.37;;
27013;SDS011;14556;52.222;4.510;2022-12-29T05:39:51;7.83;;;1.40;;
27013;SDS011;14556;52.222;4.510;2022-12-29T05:42:17;9.60;;;2.10;;
27013;SDS011;14556;52.222;4.510;2022-12-29T05:44:44;6.17;;;1.63;;
27013;SDS011;14556;52.222;4.510;2022-12-29T05:47:10;12.73;;;1.50;;
27013;SDS011;14556;52.222;4.510;2022-12-29T05:49:37;8.23;;;1.60;;
27013;SDS011;14556;52.222;4.510;2022-12-29T05:52:03;5.17;;;0.87;;
27013;SDS011;14556;52.222;4.510;2022-12-29T05:54:30;12.33;;;2.00;;
27013;SDS011;14556;52.222;4.510;2022-12-29T05:56:57;13.53;;;2.00;;
27013;SDS011;14556;52.222;4.510;2022-12-29T05:59:24;12.27;;;2.00;;
27013;SDS011;14556;52.222;4.510;2022-12-29T06:01:50;4.97;;;0.87;;
27013;SDS011;14556;52.222;4.510;2022-12-29T06:04:18;10.17;;;1.90;;
27013;SDS011;14556;52.222;4.510;2022-12-29T06:06:44;4.63;;;1.30;;
27013;SDS011;14556;52.222;4.510;2022-12-29T06:09:11;11.43;;;1.40;;
27013;SDS011;14556;52.222;4.510;2022-12-29T06:11:37;9.83;;;1.70;;
27013;SDS011;14556;52.222;4.510;2022-12-29T06:14:04;11.10;;;1.63;;
27013;SDS011;14556;52.222;4.510;2022-12-29T06:16:30;3.47;;;0.70;;
27013;SDS011;14556;52.222;4.510;2022-12-29T06:18:57;13.37;;;2.03;;
27013;SDS011;14556;52.222;4.510;2022-12-29T06:21:23;16.53;;;2.00;;
27013;SDS011;14556;52.222;4.510;2022-12-29T06:23:49;5.77;;;1.70;;
27013;SDS011;14556;52.222;4.510;2022-12-29T06:26:16;10.70;;;1.90;;
27013;SDS011;14556;52.222;4.510;2022-12-29T06:28:42;8.30;;;1.47;;
27013;SDS011;14556;52.222;4.510;2022-12-29T06:31:10;11.97;;;2.17;;
27013;SDS011;14556;52.222;4.510;2022-12-29T06:33:37;6.17;;;1.73;;
27013;SDS011;14556;52.222;4.510;2022-12-29T06:36:04;22.00;;;2.60;;
27013;SDS011;14556;52.222;4.510;2022-12-29T06:38:31;17.13;;;2.40;;
27013;SDS011;14556;52.222;4.510;2022-12-29T06:40:57;10.40;;;1.53;;
27013;SDS011;14556;52.222;4.510;2022-12-29T06:43:24;16.80;;;2.63;;
27013;SDS011;14556;52.222;4.510;2022-12-29T06:45:50;8.00;;;1.90;;
27013;SDS011;14556;52.222;4.510;2022-12-29T06:48:17;20.87;;;2.73;;
27013;SDS011;14556;52.222;4.510;2022-12-29T06:50:43;14.70;;;2.70;;
27013;SDS011;14556;52.222;4.510;2022-12-29T06:53:10;17.43;;;2.83;;
27013;SDS011;14556;52.222;4.510;2022-12-29T06:55:36;8.90;;;1.50;;
27013;SDS011;14556;52.222;4.510;2022-12-29T06:58:03;13.90;;;2.20;;
27013;SDS011;14556;52.222;4.510;2022-12-29T07:00:29;16.23;;;2.67;;
27013;SDS011;14556;52.222;4.510;2022-12-29T07:02:56;17.57;;;2.87;;
27013;SDS011;14556;52.222;4.510;2022-12-29T07:05:26;8.70;;;2.03;;
27013;SDS011;14556;52.222;4.510;2022-12-29T07:07:54;16.00;;;2.53;;
27013;SDS011;14556;52.222;4.510;2022-12-29T07:10:22;12.67;;;1.77;;
27013;SDS011;14556;52.222;4.510;2022-12-29T07:12:48;18.67;;;2.10;;
27013;SDS011;14556;52.222;4.510;2022-12-29T07:15:15;6.83;;;1.43;;
27013;SDS011;14556;52.222;4.510;2022-12-29T07:17:41;13.23;;;3.33;;
27013;SDS011;14556;52.222;4.510;2022-12-29T07:20:08;14.17;;;1.83;;
27013;SDS011;14556;52.222;4.510;2022-12-29T07:22:37;12.57;;;2.10;;
27013;SDS011;14556;52.222;4.510;2022-12-29T07:25:04;27.13;;;4.50;;
27013;SDS011;14556;52.222;4.510;2022-12-29T07:27:31;11.53;;;1.57;;
27013;SDS011;14556;52.222;4.510;2022-12-29T07:29:58;22.57;;;3.03;;
27013;SDS011;14556;52.222;4.510;2022-12-29T07:32:24;25.00;;;2.50;;
27013;SDS011;14556;52.222;4.510;2022-12-29T07:34:52;10.80;;;2.57;;
27013;SDS011;14556;52.222;4.510;2022-12-29T07:37:18;15.33;;;2.60;;
27013;SDS011;14556;52.222;4.510;2022-12-29T07:39:45;6.87;;;1.00;;
27013;SDS011;14556;52.222;4.510;2022-12-29T07:42:11;9.13;;;1.43;;
27013;SDS011;14556;52.222;4.510;2022-12-29T07:44:38;15.37;;;2.17;;
27013;SDS011;14556;52.222;4.510;2022-12-29T07:47:04;10.00;;;1.80;;
27013;SDS011;14556;52.222;4.510;2022-12-29T07:49:31;13.20;;;2.30;;
27013;SDS011;14556;52.222;4.510;2022-12-29T07:51:58;7.23;;;1.83;;
27013;SDS011;14556;52.222;4.510;2022-12-29T07:54:25;14.40;;;2.37;;
27013;SDS011;14556;52.222;4.510;2022-12-29T07:56:51;11.97;;;1.90;;
27013;SDS011;14556;52.222;4.510;2022-12-29T07:59:18;9.47;;;2.10;;
27013;SDS011;14556;52.222;4.510;2022-12-29T08:01:44;7.87;;;1.67;;
27013;SDS011;14556;52.222;4.510;2022-12-29T08:04:11;11.77;;;2.03;;
27013;SDS011;14556;52.222;4.510;2022-12-29T08:06:38;15.87;;;2.33;;
27013;SDS011;14556;52.222;4.510;2022-12-29T08:09:05;8.23;;;1.57;;
27013;SDS011;14556;52.222;4.510;2022-12-29T08:11:43;12.90;;;2.33;;
27013;SDS011;14556;52.222;4.510;2022-12-29T08:14:10;15.87;;;2.00;;
27013;SDS011;14556;52.222;4.510;2022-12-29T08:16:36;10.90;;;1.67;;
27013;SDS011;14556;52.222;4.510;2022-12-29T08:19:03;17.90;;;2.63;;
27013;SDS011;14556;52.222;4.510;2022-12-29T08:21:31;12.20;;;1.47;;
27013;SDS011;14556;52.222;4.510;2022-12-29T08:23:57;16.40;;;2.43;;
27013;SDS011;14556;52.222;4.510;2022-12-29T08:26:25;14.17;;;2.47;;
27013;SDS011;14556;52.222;4.510;2022-12-29T08:28:52;11.27;;;2.10;;
27013;SDS011;14556;52.222;4.510;2022-12-29T08:31:19;18.90;;;1.97;;
27013;SDS011;14556;52.222;4.510;2022-12-29T08:33:46;13.77;;;1.67;;
27013;SDS011;14556;52.222;4.510;2022-12-29T08:36:12;19.63;;;2.80;;
27013;SDS011;14556;52.222;4.510;2022-12-29T08:38:39;14.07;;;2.63;;
27013;SDS011;14556;52.222;4.510;2022-12-29T08:41:05;14.90;;;2.90;;
27013;SDS011;14556;52.222;4.510;2022-12-29T08:43:32;12.47;;;2.17;;
27013;SDS011;14556;52.222;4.510;2022-12-29T08:45:58;14.30;;;2.13;;
27013;SDS011;14556;52.222;4.510;2022-12-29T08:48:26;11.27;;;2.30;;
27013;SDS011;14556;52.222;4.510;2022-12-29T08:50:52;13.87;;;2.73;;
27013;SDS011;14556;52.222;4.510;2022-12-29T08:53:19;17.70;;;2.13;;
27013;SDS011;14556;52.222;4.510;2022-12-29T08:55:46;10.93;;;1.50;;
27013;SDS011;14556;52.222;4.510;2022-12-29T08:58:13;5.27;;;1.50;;
27013;SDS011;14556;52.222;4.510;2022-12-29T09:00:41;13.37;;;2.50;;
27013;SDS011;14556;52.222;4.510;2022-12-29T09:03:08;13.20;;;1.33;;
27013;SDS011;14556;52.222;4.510;2022-12-29T09:05:35;14.47;;;2.63;;
27013;SDS011;14556;52.222;4.510;2022-12-29T09:08:02;16.37;;;2.73;;
27013;SDS011;14556;52.222;4.510;2022-12-29T09:10:29;16.07;;;2.37;;
27013;SDS011;14556;52.222;4.510;2022-12-29T09:12:56;12.87;;;2.53;;
27013;SDS011;14556;52.222;4.510;2022-12-29T09:15:22;15.17;;;2.37;;
27013;SDS011;14556;52.222;4.510;2022-12-29T09:17:49;14.77;;;2.17;;
27013;SDS011;14556;52.222;4.510;2022-12-29T09:20:16;18.70;;;2.60;;
27013;SDS011;14556;52.222;4.510;2022-12-29T09:22:44;9.40;;;2.43;;
27013;SDS011;14556;52.222;4.510;2022-12-29T09:25:12;18.60;;;2.33;;
27013;SDS011;14556;52.222;4.510;2022-12-29T09:27:39;12.73;;;1.73;;
27013;SDS011;14556;52.222;4.510;2022-12-29T09:30:07;9.23;;;2.20;;
27013;SDS011;14556;52.222;4.510;2022-12-29T09:32:36;24.30;;;2.67;;
27013;SDS011;14556;52.222;4.510;2022-12-29T09:35:10;18.97;;;4.13;;
27013;SDS011;14556;52.222;4.510;2022-12-29T09:37:36;14.53;;;2.57;;
27013;SDS011;14556;52.222;4.510;2022-12-29T09:40:03;19.13;;;3.23;;
27013;SDS011;14556;52.222;4.510;2022-12-29T09:45:15;14.80;;;2.90;;
27013;SDS011;14556;52.222;4.510;2022-12-29T09:47:46;20.97;;;2.90;;
27013;SDS011;14556;52.222;4.510;2022-12-29T09:50:23;21.53;;;3.30;;
27013;SDS011;14556;52.222;4.510;2022-12-29T09:52:55;16.00;;;2.70;;
27013;SDS011;14556;52.222;4.510;2022-12-29T09:55:46;21.63;;;4.53;;
27013;SDS011;14556;52.222;4.510;2022-12-29T10:01:00;28.03;;;4.57;;
27013;SDS011;14556;52.222;4.510;2022-12-29T10:06:15;26.80;;;3.93;;
27013;SDS011;14556;52.222;4.510;2022-12-29T10:17:41;24.43;;;2.97;;
27013;SDS011;14556;52.222;4.510;2022-12-29T10:23:39;18.03;;;3.07;;
27013;SDS011;14556;52.222;4.510;2022-12-29T10:26:10;28.57;;;4.47;;
27013;SDS011;14556;52.222;4.510;2022-12-29T10:28:43;22.27;;;4.60;;
27013;SDS011;14556;52.222;4.510;2022-12-29T10:31:18;23.17;;;3.30;;
27013;SDS011;14556;52.222;4.510;2022-12-29T10:33:49;23.80;;;4.00;;
27013;SDS011;14556;52.222;4.510;2022-12-29T10:39:30;20.93;;;2.67;;
27013;SDS011;14556;52.222;4.510;2022-12-29T10:44:47;10.03;;;2.47;;
27013;SDS011;14556;52.222;4.510;2022-12-29T10:47:15;24.57;;;3.80;;
27013;SDS011;14556;52.222;4.510;2022-12-29T10:49:46;31.77;;;3.67;;
27013;SDS011;14556;52.222;4.510;2022-12-29T10:52:14;26.13;;;3.60;;
27013;SDS011;14556;52.222;4.510;2022-12-29T10:54:59;23.87;;;4.77;;
27013;SDS011;14556;52.222;4.510;2022-12-29T10:57:28;28.37;;;3.10;;
27013;SDS011;14556;52.222;4.510;2022-12-29T10:59:59;9.67;;;2.67;;
27013;SDS011;14556;52.222;4.510;2022-12-29T11:05:32;17.10;;;2.10;;
27013;SDS011;14556;52.222;4.510;2022-12-29T11:08:07;20.27;;;2.67;;
27013;SDS011;14556;52.222;4.510;2022-12-29T11:10:41;21.13;;;3.30;;
27013;SDS011;14556;52.222;4.510;2022-12-29T11:13:20;10.63;;;3.40;;
27013;SDS011;14556;52.222;4.510;2022-12-29T11:15:51;16.13;;;3.53;;
27013;SDS011;14556;52.222;4.510;2022-12-29T11:18:25;8.73;;;1.73;;
27013;SDS011;14556;52.222;4.510;2022-12-29T11:20:57;16.93;;;2.50;;
27013;SDS011;14556;52.222;4.510;2022-12-29T11:23:36;13.37;;;3.13;;
27013;SDS011;14556;52.222;4.510;2022-12-29T11:26:06;32.17;;;1.60;;
27013;SDS011;14556;52.222;4.510;2022-12-29T11:29:14;14.40;;;2.23;;
27013;SDS011;14556;52.222;4.510;2022-12-29T11:31:55;18.60;;;2.30;;
27013;SDS011;14556;52.222;4.510;2022-12-29T11:34:32;11.70;;;1.83;;
27013;SDS011;14556;52.222;4.510;2022-12-29T11:37:02;21.13;;;2.17;;
27013;SDS011;14556;52.222;4.510;2022-12-29T11:39:41;16.70;;;2.73;;
27013;SDS011;14556;52.222;4.510;2022-12-29T11:42:18;22.10;;;2.30;;
27013;SDS011;14556;52.222;4.510;2022-12-29T11:44:49;20.87;;;2.57;;
27013;SDS011;14556;52.222;4.510;2022-12-29T11:47:22;20.97;;;2.57;;
27013;SDS011;14556;52.222;4.510;2022-12-29T11:49:53;12.77;;;1.73;;
27013;SDS011;14556;52.222;4.510;2022-12-29T11:52:23;11.93;;;1.83;;
27013;SDS011;14556;52.222;4.510;2022-12-29T11:54:53;13.00;;;1.70;;
27013;SDS011;14556;52.222;4.510;2022-12-29T11:57:20;9.13;;;1.70;;
27013;SDS011;14556;52.222;4.510;2022-12-29T11:59:49;11.97;;;2.13;;
27013;SDS011;14556;52.222;4.510;2022-12-29T12:02:26;11.63;;;1.97;;
27013;SDS011;14556;52.222;4.510;2022-12-29T12:08:00;8.20;;;1.50;;
27013;SDS011;14556;52.222;4.510;2022-12-29T12:10:41;9.70;;;2.37;;
27013;SDS011;14556;52.222;4.510;2022-12-29T12:13:20;14.33;;;2.30;;
27013;SDS011;14556;52.222;4.510;2022-12-29T12:16:04;6.40;;;1.70;;
27013;SDS011;14556;52.222;4.510;2022-12-29T12:18:45;12.47;;;2.70;;
27013;SDS011;14556;52.222;4.510;2022-12-29T12:32:42;9.97;;;2.20;;
27013;SDS011;14556;52.222;4.510;2022-12-29T12:35:14;13.23;;;1.60;;
27013;SDS011;14556;52.222;4.510;2022-12-29T12:53:00;11.03;;;1.13;;
27013;SDS011;14556;52.222;4.510;2022-12-29T13:12:44;10.17;;;1.90;;
27013;SDS011;14556;52.222;4.510;2022-12-29T13:18:32;4.43;;;1.27;;
27013;SDS011;14556;52.222;4.510;2022-12-29T13:21:15;4.63;;;1.77;;
27013;SDS011;14556;52.222;4.510;2022-12-29T13:26:52;12.17;;;1.80;;
27013;SDS011;14556;52.222;4.510;2022-12-29T13:29:36;12.37;;;1.77;;
27013;SDS011;14556;52.222;4.510;2022-12-29T13:34:56;12.00;;;1.40;;
27013;SDS011;14556;52.222;4.510;2022-12-29T13:37:27;14.37;;;2.10;;
27013;SDS011;14556;52.222;4.510;2022-12-29T13:40:02;10.40;;;1.97;;
27013;SDS011;14556;52.222;4.510;2022-12-29T13:42:36;10.43;;;1.90;;
27013;SDS011;14556;52.222;4.510;2022-12-29T13:45:10;7.57;;;1.13;;
27013;SDS011;14556;52.222;4.510;2022-12-29T13:50:31;10.57;;;1.53;;
27013;SDS011;14556;52.222;4.510;2022-12-29T13:53:11;11.33;;;2.10;;
27013;SDS011;14556;52.222;4.510;2022-12-29T14:01:20;8.43;;;1.53;;
27013;SDS011;14556;52.222;4.510;2022-12-29T14:03:57;12.03;;;1.87;;
27013;SDS011;14556;52.222;4.510;2022-12-29T14:06:31;14.03;;;2.53;;
27013;SDS011;14556;52.222;4.510;2022-12-29T14:09:02;7.60;;;1.87;;
27013;SDS011;14556;52.222;4.510;2022-12-29T14:11:34;15.03;;;3.50;;
27013;SDS011;14556;52.222;4.510;2022-12-29T14:16:47;15.23;;;2.70;;
27013;SDS011;14556;52.222;4.510;2022-12-29T14:19:38;9.73;;;2.13;;
27013;SDS011;14556;52.222;4.510;2022-12-29T14:22:08;11.27;;;1.80;;
27013;SDS011;14556;52.222;4.510;2022-12-29T14:24:43;9.00;;;2.03;;
27013;SDS011;14556;52.222;4.510;2022-12-29T14:34:53;13.60;;;1.53;;
27013;SDS011;14556;52.222;4.510;2022-12-29T14:37:28;11.40;;;2.53;;
27013;SDS011;14556;52.222;4.510;2022-12-29T14:42:53;10.83;;;2.10;;
27013;SDS011;14556;52.222;4.510;2022-12-29T14:45:28;16.73;;;1.80;;
27013;SDS011;14556;52.222;4.510;2022-12-29T14:47:56;11.07;;;2.23;;
27013;SDS011;14556;52.222;4.510;2022-12-29T14:50:24;11.27;;;1.97;;
27013;SDS011;14556;52.222;4.510;2022-12-29T14:53:01;8.90;;;1.27;;
27013;SDS011;14556;52.222;4.510;2022-12-29T14:58:17;16.27;;;2.43;;
27013;SDS011;14556;52.222;4.510;2022-12-29T15:00:44;9.33;;;2.27;;
27013;SDS011;14556;52.222;4.510;2022-12-29T15:05:57;12.23;;;2.60;;
27013;SDS011;14556;52.222;4.510;2022-12-29T15:08:39;20.93;;;2.23;;
27013;SDS011;14556;52.222;4.510;2022-12-29T15:13:48;12.63;;;2.03;;
27013;SDS011;14556;52.222;4.510;2022-12-29T15:18:55;10.23;;;2.13;;
27013;SDS011;14556;52.222;4.510;2022-12-29T15:21:26;15.77;;;2.43;;
27013;SDS011;14556;52.222;4.510;2022-12-29T15:23:58;14.23;;;2.03;;
27013;SDS011;14556;52.222;4.510;2022-12-29T15:26:38;11.20;;;2.47;;
27013;SDS011;14556;52.222;4.510;2022-12-29T15:32:10;10.97;;;2.80;;
27013;SDS011;14556;52.222;4.510;2022-12-29T15:34:49;15.77;;;2.43;;
27013;SDS011;14556;52.222;4.510;2022-12-29T15:37:27;14.57;;;2.60;;
27013;SDS011;14556;52.222;4.510;2022-12-29T15:39:58;16.23;;;2.07;;
27013;SDS011;14556;52.222;4.510;2022-12-29T15:45:13;19.87;;;2.00;;
27013;SDS011;14556;52.222;4.510;2022-12-29T15:47:41;17.00;;;2.90;;
27013;SDS011;14556;52.222;4.510;2022-12-29T15:50:22;16.93;;;2.30;;
27013;SDS011;14556;52.222;4.510;2022-12-29T15:52:52;13.75;;;2.47;;
27013;SDS011;14556;52.222;4.510;2022-12-29T15:55:20;13.40;;;2.00;;
27013;SDS011;14556;52.222;4.510;2022-12-29T15:57:51;10.00;;;2.17;;
27013;SDS011;14556;52.222;4.510;2022-12-29T16:00:24;8.67;;;1.40;;
27013;SDS011;14556;52.222;4.510;2022-12-29T16:02:57;14.70;;;2.57;;
27013;SDS011;14556;52.222;4.510;2022-12-29T16:05:36;6.80;;;1.60;;
27013;SDS011;14556;52.222;4.510;2022-12-29T16:11:21;10.67;;;1.90;;
27013;SDS011;14556;52.222;4.510;2022-12-29T16:13:52;11.63;;;1.57;;
27013;SDS011;14556;52.222;4.510;2022-12-29T16:16:28;12.10;;;1.90;;
27013;SDS011;14556;52.222;4.510;2022-12-29T16:18:57;14.47;;;2.37;;
27013;SDS011;14556;52.222;4.510;2022-12-29T16:21:28;8.93;;;2.03;;
27013;SDS011;14556;52.222;4.510;2022-12-29T16:24:02;4.03;;;1.37;;
27013;SDS011;14556;52.222;4.510;2022-12-29T16:26:33;17.03;;;2.20;;
27013;SDS011;14556;52.222;4.510;2022-12-29T16:29:01;13.93;;;2.20;;
27013;SDS011;14556;52.222;4.510;2022-12-29T16:31:34;9.33;;;2.27;;
27013;SDS011;14556;52.222;4.510;2022-12-29T16:34:23;7.87;;;1.20;;
27013;SDS011;14556;52.222;4.510;2022-12-29T16:36:52;12.77;;;1.80;;
27013;SDS011;14556;52.222;4.510;2022-12-29T16:39:36;12.87;;;2.43;;
27013;SDS011;14556;52.222;4.510;2022-12-29T16:50:31;16.67;;;2.50;;
27013;SDS011;14556;52.222;4.510;2022-12-29T16:53:00;7.33;;;1.57;;
27013;SDS011;14556;52.222;4.510;2022-12-29T16:55:29;16.77;;;3.27;;
27013;SDS011;14556;52.222;4.510;2022-12-29T16:57:55;16.53;;;2.50;;
27013;SDS011;14556;52.222;4.510;2022-12-29T17:00:25;17.20;;;2.63;;
27013;SDS011;14556;52.222;4.510;2022-12-29T17:02:56;10.57;;;2.53;;
27013;SDS011;14556;52.222;4.510;2022-12-29T17:05:24;9.27;;;1.93;;
27013;SDS011;14556;52.222;4.510;2022-12-29T17:07:52;12.93;;;2.40;;
27013;SDS011;14556;52.222;4.510;2022-12-29T17:10:19;14.07;;;2.03;;
27013;SDS011;14556;52.222;4.510;2022-12-29T17:12:45;19.53;;;2.50;;
27013;SDS011;14556;52.222;4.510;2022-12-29T17:15:15;10.90;;;2.03;;
27013;SDS011;14556;52.222;4.510;2022-12-29T17:17:51;7.77;;;1.27;;
27013;SDS011;14556;52.222;4.510;2022-12-29T17:20:27;14.77;;;2.53;;
27013;SDS011;14556;52.222;4.510;2022-12-29T17:22:56;14.47;;;1.77;;
27013;SDS011;14556;52.222;4.510;2022-12-29T17:25:31;11.97;;;2.40;;
27013;SDS011;14556;52.222;4.510;2022-12-29T17:28:01;14.03;;;3.17;;
27013;SDS011;14556;52.222;4.510;2022-12-29T17:30:29;20.53;;;2.30;;
27013;SDS011;14556;52.222;4.510;2022-12-29T17:33:02;11.67;;;1.93;;
27013;SDS011;14556;52.222;4.510;2022-12-29T17:35:30;11.47;;;2.10;;
27013;SDS011;14556;52.222;4.510;2022-12-29T17:37:57;13.47;;;2.63;;
27013;SDS011;14556;52.222;4.510;2022-12-29T17:40:24;5.43;;;1.77;;
27013;SDS011;14556;52.222;4.510;2022-12-29T17:42:53;9.27;;;2.20;;
27013;SDS011;14556;52.222;4.510;2022-12-29T17:45:23;15.47;;;2.53;;
27013;SDS011;14556;52.222;4.510;2022-12-29T17:47:51;13.40;;;2.00;;
27013;SDS011;14556;52.222;4.510;2022-12-29T17:50:19;11.43;;;2.40;;